createdAt,value
2018-05-07T00:01:05.322Z,47.90
2018-05-07T00:03:35.205Z,47.75
2018-05-07T00:06:03.683Z,48.24
2018-05-07T00:08:31.858Z,48.70
2018-05-07T00:11:03.211Z,48.66
2018-05-07T00:13:33.547Z,48.74
2018-05-07T00:16:02.048Z,48.68
2018-05-07T00:18:30.289Z,48.70
2018-05-07T00:20:59.699Z,48.31
2018-05-07T00:23:27.979Z,48.79
2018-05-07T00:25:56.275Z,48.99
2018-05-07T00:28:24.553Z,48.87
2018-05-07T00:30:52.821Z,48.77
2018-05-07T00:33:21.179Z,49.11
2018-05-07T00:35:49.665Z,49.65
2018-05-07T00:38:17.932Z,49.93
2018-05-07T00:40:46.216Z,49.94
2018-05-07T00:43:14.486Z,49.85
2018-05-07T00:45:42.840Z,49.98
2018-05-07T00:48:11.147Z,50.14
2018-05-07T00:50:39.441Z,50.32
2018-05-07T00:53:07.870Z,50.25
2018-05-07T00:55:36.183Z,49.99
2018-05-07T00:58:04.487Z,50.12
2018-05-07T01:00:32.778Z,50.84
2018-05-07T01:03:01.133Z,50.69
2018-05-07T01:05:31.326Z,50.40
2018-05-07T01:07:59.669Z,50.51
2018-05-07T01:10:27.924Z,51.17
2018-05-07T01:12:56.223Z,52.38
2018-05-07T01:15:25.069Z,52.28
2018-05-07T01:17:54.283Z,52.39
2018-05-07T01:20:22.636Z,52.95
2018-05-07T01:22:50.953Z,53.62
2018-05-07T01:25:19.250Z,53.65
2018-05-07T01:27:48.080Z,54.01
2018-05-07T01:30:16.369Z,54.40
2018-05-07T01:32:44.671Z,54.46
2018-05-07T01:35:12.961Z,54.59
2018-05-07T01:37:41.482Z,54.08
2018-05-07T01:40:09.749Z,53.47
2018-05-07T01:42:38.098Z,53.20
2018-05-07T01:45:06.347Z,52.81
2018-05-07T01:47:34.631Z,53.12
2018-05-07T01:50:02.917Z,53.21
2018-05-07T01:52:31.203Z,53.17
2018-05-07T01:54:59.499Z,52.88
2018-05-07T01:57:27.762Z,53.17
2018-05-07T01:59:56.018Z,53.55
2018-05-07T02:02:24.279Z,54.29
2018-05-07T02:04:52.555Z,55.04
2018-05-07T02:07:20.827Z,55.55
2018-05-07T02:09:49.206Z,55.76
2018-05-07T02:12:17.544Z,55.76
2018-05-07T02:14:45.885Z,55.40
2018-05-07T02:17:14.165Z,55.17
2018-05-07T02:19:42.454Z,54.71
2018-05-07T02:22:10.719Z,54.50
2018-05-07T02:24:39.010Z,54.51
2018-05-07T02:27:07.341Z,54.71
2018-05-07T02:29:35.635Z,55.17
2018-05-07T02:32:04.520Z,55.41
2018-05-07T02:34:32.802Z,56.10
2018-05-07T02:37:01.196Z,56.65
2018-05-07T02:39:29.468Z,57.20
2018-05-07T02:41:57.943Z,57.71
2018-05-07T02:44:26.474Z,57.96
2018-05-07T02:46:54.887Z,57.63
2018-05-07T02:49:23.265Z,57.66
2018-05-07T02:51:52.695Z,57.68
2018-05-07T02:54:21.078Z,57.48
2018-05-07T02:56:49.436Z,57.95
2018-05-07T02:59:17.713Z,57.57
2018-05-07T03:01:45.983Z,57.03
2018-05-07T03:04:14.274Z,56.84
2018-05-07T03:06:42.558Z,56.49
2018-05-07T03:09:11.761Z,56.39
2018-05-07T03:11:40.028Z,56.24
2018-05-07T03:14:08.291Z,56.34
2018-05-07T03:16:36.554Z,56.69
2018-05-07T03:19:04.892Z,56.62
2018-05-07T03:21:33.213Z,56.59
2018-05-07T03:24:01.517Z,57.06
2018-05-07T03:26:29.793Z,56.93
2018-05-07T03:28:58.102Z,57.16
2018-05-07T03:31:26.384Z,57.20
2018-05-07T03:33:54.688Z,57.27
2018-05-07T03:36:22.977Z,57.26
2018-05-07T03:38:52.180Z,57.35
2018-05-07T03:41:20.452Z,57.25
2018-05-07T03:43:48.736Z,57.67
2018-05-07T03:46:16.998Z,58.25
2018-05-07T03:48:45.422Z,58.82
2018-05-07T03:51:13.589Z,58.22
2018-05-07T03:53:41.872Z,57.85
2018-05-07T03:56:10.151Z,57.90
2018-05-07T03:58:38.438Z,57.83
2018-05-07T04:01:06.697Z,57.66
2018-05-07T04:03:34.989Z,57.85
2018-05-07T04:06:03.250Z,57.88
2018-05-07T04:08:31.546Z,57.84
2018-05-07T04:10:59.805Z,57.93
2018-05-07T04:13:28.110Z,58.31
2018-05-07T04:15:56.364Z,58.23
2018-05-07T04:18:36.461Z,58.46
2018-05-07T04:21:11.434Z,58.62
2018-05-07T04:23:51.388Z,58.63
2018-05-07T04:26:19.677Z,58.37
2018-05-07T04:28:47.938Z,58.11
2018-05-07T04:31:16.234Z,57.74
2018-05-07T04:33:44.550Z,58.09
2018-05-07T04:36:12.787Z,58.40
2018-05-07T04:38:41.063Z,58.33
2018-05-07T04:41:09.345Z,58.22
2018-05-07T04:43:37.616Z,58.65
2018-05-07T04:46:05.903Z,58.84
2018-05-07T04:48:34.180Z,58.96
2018-05-07T04:51:02.454Z,58.86
2018-05-07T04:53:30.726Z,58.67
2018-05-07T04:55:59.051Z,58.47
2018-05-07T04:58:27.282Z,58.43
2018-05-07T05:00:55.590Z,58.13
2018-05-07T05:03:23.837Z,58.18
2018-05-07T05:05:52.114Z,57.90
2018-05-07T05:08:20.395Z,57.58
2018-05-07T05:10:48.670Z,57.43
2018-05-07T05:13:16.943Z,57.24
2018-05-07T05:15:45.258Z,57.15
2018-05-07T05:18:13.547Z,56.80
2018-05-07T05:20:41.817Z,56.56
2018-05-07T05:23:10.107Z,56.70
2018-05-07T05:25:38.401Z,56.44
2018-05-07T05:28:06.708Z,56.26
2018-05-07T05:30:34.984Z,56.12
2018-05-07T05:33:03.293Z,55.94
2018-05-07T05:35:31.669Z,55.80
2018-05-07T05:37:59.932Z,55.53
2018-05-07T05:40:28.224Z,55.45
2018-05-07T05:42:56.570Z,55.45
2018-05-07T05:45:24.847Z,55.29
2018-05-07T05:47:53.133Z,55.23
2018-05-07T05:50:21.412Z,54.82
2018-05-07T05:52:49.714Z,54.47
2018-05-07T05:55:18.019Z,54.51
2018-05-07T05:57:46.277Z,54.57
2018-05-07T06:00:14.554Z,54.52
2018-05-07T06:02:42.950Z,54.34
2018-05-07T06:05:11.221Z,54.30
2018-05-07T06:07:39.528Z,53.89
2018-05-07T06:10:07.807Z,53.56
2018-05-07T06:12:36.091Z,53.34
2018-05-07T06:15:04.422Z,53.41
2018-05-07T06:17:32.700Z,53.00
2018-05-07T06:20:01.006Z,53.26
2018-05-07T06:22:29.287Z,52.96
2018-05-07T06:24:57.650Z,52.80
2018-05-07T06:27:25.926Z,52.73
2018-05-07T06:29:54.225Z,52.25
2018-05-07T06:32:22.500Z,52.11
2018-05-07T06:34:50.809Z,51.61
2018-05-07T06:37:19.157Z,51.35
2018-05-07T06:39:47.479Z,51.04
2018-05-07T06:42:15.736Z,50.89
2018-05-07T06:44:45.114Z,50.86
2018-05-07T06:47:13.355Z,50.74
2018-05-07T06:49:42.694Z,50.23
2018-05-07T06:52:13.811Z,49.90
2018-05-07T06:54:42.125Z,49.89
2018-05-07T06:57:10.440Z,49.67
2018-05-07T06:59:39.539Z,50.09
2018-05-07T07:02:07.815Z,49.94
2018-05-07T07:04:36.123Z,49.01
2018-05-07T07:07:04.388Z,48.77
2018-05-07T07:09:33.014Z,48.69
2018-05-07T07:12:01.324Z,48.65
2018-05-07T07:14:30.664Z,48.67
2018-05-07T07:16:59.097Z,48.24
2018-05-07T07:19:27.385Z,48.11
2018-05-07T07:21:55.735Z,46.88
2018-05-07T07:24:24.797Z,46.79
2018-05-07T07:26:53.685Z,46.32
2018-05-07T07:29:22.183Z,46.06
2018-05-07T07:31:50.430Z,45.51
2018-05-07T07:34:18.834Z,45.19
2018-05-07T07:36:48.052Z,45.12
2018-05-07T07:39:16.351Z,44.70
2018-05-07T07:41:46.252Z,44.16
2018-05-07T07:44:14.716Z,43.94
2018-05-07T07:46:43.981Z,43.63
2018-05-07T07:49:12.393Z,43.57
2018-05-07T07:51:41.600Z,43.75
2018-05-07T07:54:10.619Z,43.48
2018-05-07T07:56:40.464Z,43.77
2018-05-07T07:59:08.818Z,42.80
2018-05-07T08:01:37.229Z,41.61
2018-05-07T08:04:05.422Z,41.40
2018-05-07T08:06:34.855Z,41.01
2018-05-07T08:09:03.824Z,40.87
2018-05-07T08:11:32.979Z,40.69
2018-05-07T08:14:01.294Z,39.82
2018-05-07T08:16:29.563Z,39.52
2018-05-07T08:18:57.870Z,38.86
2018-05-07T08:21:26.195Z,39.10
2018-05-07T08:23:54.500Z,38.48
2018-05-07T08:26:22.887Z,38.38
2018-05-07T08:28:51.426Z,37.82
2018-05-07T08:31:20.006Z,38.07
2018-05-07T08:33:48.459Z,37.94
2018-05-07T08:36:16.762Z,38.59
2018-05-07T08:38:45.063Z,39.09
2018-05-07T08:41:13.437Z,39.08
2018-05-07T08:43:41.775Z,38.32
2018-05-07T08:46:10.679Z,36.56
2018-05-07T08:48:39.003Z,36.46
2018-05-07T08:51:07.289Z,36.68
2018-05-07T08:53:36.308Z,36.42
2018-05-07T08:56:04.583Z,36.14
2018-05-07T08:58:32.896Z,35.78
2018-05-07T09:01:03.965Z,35.62
2018-05-07T09:03:32.197Z,35.95
2018-05-07T09:06:01.299Z,36.08
2018-05-07T09:08:29.582Z,35.76
2018-05-07T09:10:57.951Z,35.12
2018-05-07T09:13:26.833Z,35.48
2018-05-07T09:15:55.354Z,35.44
2018-05-07T09:18:23.755Z,35.28
2018-05-07T09:20:52.125Z,35.05
2018-05-07T09:23:20.459Z,35.24
2018-05-07T09:25:49.536Z,34.95
2018-05-07T09:28:19.095Z,34.51
2018-05-07T09:30:48.425Z,34.42
2018-05-07T09:33:16.952Z,34.56
2018-05-07T09:35:45.249Z,34.54
2018-05-07T09:38:15.023Z,34.55
2018-05-07T09:40:43.314Z,34.36
2018-05-07T09:43:11.634Z,34.09
2018-05-07T09:45:39.937Z,33.94
2018-05-07T09:48:08.823Z,33.59
2018-05-07T09:50:37.201Z,33.76
2018-05-07T09:53:05.460Z,33.11
2018-05-07T09:55:33.731Z,32.63
2018-05-07T09:58:03.733Z,32.67
2018-05-07T10:00:37.545Z,32.76
2018-05-07T10:03:05.891Z,32.02
2018-05-07T10:05:34.986Z,32.35
2018-05-07T10:08:03.355Z,31.58
2018-05-07T10:10:32.513Z,31.99
2018-05-07T10:13:00.777Z,32.03
2018-05-07T10:15:29.070Z,31.59
2018-05-07T10:17:57.556Z,31.54
2018-05-07T10:20:25.879Z,31.14
2018-05-07T10:22:54.249Z,31.41
2018-05-07T10:25:22.622Z,30.86
2018-05-07T10:27:50.921Z,30.99
2018-05-07T10:30:19.209Z,30.83
2018-05-07T10:32:49.518Z,31.04
2018-05-07T10:35:18.424Z,30.79
2018-05-07T10:37:48.673Z,30.78
2018-05-07T10:40:18.141Z,30.14
2018-05-07T10:42:47.154Z,30.25
2018-05-07T10:45:15.470Z,29.56
2018-05-07T10:47:43.754Z,29.88
2018-05-07T10:50:12.315Z,29.88
2018-05-07T10:52:40.739Z,30.16
2018-05-07T10:55:09.887Z,29.29
2018-05-07T10:57:38.624Z,28.82
2018-05-07T11:00:06.944Z,28.46
2018-05-07T11:02:35.226Z,28.33
2018-05-07T11:05:03.502Z,28.23
2018-05-07T11:07:31.910Z,27.66
2018-05-07T11:10:00.218Z,28.20
2018-05-07T11:12:28.519Z,27.53
2018-05-07T11:14:56.895Z,27.15
2018-05-07T11:17:25.163Z,27.26
2018-05-07T11:19:53.474Z,27.13
2018-05-07T11:22:21.733Z,27.20
2018-05-07T11:24:50.027Z,27.01
2018-05-07T11:27:18.408Z,26.54
2018-05-07T11:29:46.732Z,26.71
2018-05-07T11:32:15.019Z,26.95
2018-05-07T11:34:43.306Z,27.14
2018-05-07T11:37:11.667Z,26.90
2018-05-07T11:39:39.932Z,26.93
2018-05-07T11:42:08.234Z,27.00
2018-05-07T11:44:36.537Z,27.09
2018-05-07T11:47:04.901Z,27.14
2018-05-07T11:49:33.182Z,26.80
2018-05-07T11:52:01.519Z,26.54
2018-05-07T11:54:29.823Z,26.63
2018-05-07T11:56:58.108Z,26.23
2018-05-07T11:59:26.371Z,26.47
2018-05-07T12:01:54.682Z,26.71
2018-05-07T12:04:22.997Z,26.94
2018-05-07T12:06:51.298Z,26.88
2018-05-07T12:09:19.583Z,27.87
2018-05-07T12:11:47.879Z,27.78
2018-05-07T12:14:16.181Z,27.86
2018-05-07T12:16:44.458Z,28.32
2018-05-07T12:19:12.994Z,28.60
2018-05-07T12:21:41.271Z,28.33
2018-05-07T12:24:09.630Z,27.42
2018-05-07T12:26:37.885Z,26.55
2018-05-07T12:29:06.173Z,26.45
2018-05-07T12:31:34.540Z,26.91
2018-05-07T12:34:02.823Z,27.03
2018-05-07T12:36:31.185Z,27.37
2018-05-07T12:39:00.040Z,27.14
2018-05-07T12:41:29.124Z,28.08
2018-05-07T12:43:57.405Z,27.58
2018-05-07T12:46:30.544Z,27.14
2018-05-07T12:48:58.867Z,28.13
2018-05-07T12:51:27.934Z,28.28
2018-05-07T12:53:56.223Z,27.85
2018-05-07T12:56:25.422Z,28.40
2018-05-07T12:58:53.741Z,27.97
2018-05-07T13:01:22.054Z,27.66
2018-05-07T13:03:50.298Z,27.74
2018-05-07T13:06:18.639Z,27.43
2018-05-07T13:08:46.906Z,27.19
2018-05-07T13:11:15.256Z,27.28
2018-05-07T13:13:43.579Z,26.84
2018-05-07T13:16:11.864Z,26.78
2018-05-07T13:18:40.140Z,26.53
2018-05-07T13:21:08.523Z,26.12
2018-05-07T13:23:36.870Z,25.51
2018-05-07T13:26:05.691Z,25.40
2018-05-07T13:28:33.963Z,25.02
2018-05-07T13:31:02.323Z,24.78
2018-05-07T13:33:30.601Z,24.57
2018-05-07T13:35:59.295Z,24.03
2018-05-07T13:38:27.645Z,23.86
2018-05-07T13:40:55.982Z,23.26
2018-05-07T13:43:25.234Z,23.61
2018-05-07T13:45:53.566Z,23.40
2018-05-07T13:48:21.855Z,23.11
2018-05-07T13:50:50.791Z,23.27
2018-05-07T13:53:19.073Z,23.08
2018-05-07T13:55:47.424Z,22.79
2018-05-07T13:58:15.758Z,22.65
2018-05-07T14:00:44.006Z,22.49
2018-05-07T14:03:12.572Z,22.09
2018-05-07T14:05:40.922Z,21.81
2018-05-07T14:08:09.225Z,22.02
2018-05-07T14:10:37.522Z,21.69
2018-05-07T14:13:05.925Z,21.05
2018-05-07T14:15:34.295Z,21.20
2018-05-07T14:18:02.631Z,21.88
2018-05-07T14:20:30.937Z,22.67
2018-05-07T14:22:59.199Z,22.56
2018-05-07T14:25:27.582Z,22.13
2018-05-07T14:27:56.230Z,21.58
2018-05-07T14:30:24.591Z,21.44
2018-05-07T14:32:52.926Z,21.34
2018-05-07T14:35:21.267Z,22.23
2018-05-07T14:37:49.568Z,22.57
2018-05-07T14:40:17.940Z,22.92
2018-05-07T14:42:46.223Z,23.18
2018-05-07T14:45:14.511Z,22.91
2018-05-07T14:47:42.786Z,22.81
2018-05-07T14:50:11.125Z,22.64
2018-05-07T14:52:39.479Z,22.16
2018-05-07T14:55:07.826Z,22.49
2018-05-07T14:57:36.423Z,22.40
2018-05-07T15:00:05.092Z,22.78
2018-05-07T15:02:33.433Z,22.33
2018-05-07T15:05:02.354Z,21.92
2018-05-07T15:07:30.640Z,21.82
2018-05-07T15:09:58.947Z,21.31
2018-05-07T15:12:27.289Z,21.47
2018-05-07T15:14:55.553Z,21.32
2018-05-07T15:17:23.882Z,21.25
2018-05-07T15:19:52.133Z,20.96
2018-05-07T15:22:22.097Z,21.04
2018-05-07T15:24:51.396Z,21.13
2018-05-07T15:27:20.412Z,21.47
2018-05-07T15:29:48.720Z,21.27
2018-05-07T15:32:17.076Z,20.72
2018-05-07T15:34:45.525Z,20.68
2018-05-07T15:37:13.829Z,20.47
2018-05-07T15:39:42.114Z,20.30
2018-05-07T15:42:10.422Z,20.86
2018-05-07T15:44:38.892Z,20.97
2018-05-07T15:47:07.486Z,20.92
2018-05-07T15:49:35.944Z,20.61
2018-05-07T15:52:04.336Z,20.50
2018-05-07T15:54:32.720Z,20.28
2018-05-07T15:57:01.945Z,20.50
2018-05-07T15:59:30.860Z,20.61
2018-05-07T16:02:00.204Z,20.47
2018-05-07T16:04:28.537Z,20.75
2018-05-07T16:06:56.860Z,20.46
2018-05-07T16:09:25.192Z,20.25
2018-05-07T16:11:53.458Z,20.79
2018-05-07T16:14:21.764Z,20.79
2018-05-07T16:16:50.027Z,20.32
2018-05-07T16:19:18.566Z,20.80
2018-05-07T16:21:46.708Z,21.50
2018-05-07T16:24:15.129Z,21.11
2018-05-07T16:26:46.392Z,21.21
2018-05-07T16:29:14.686Z,21.12
2018-05-07T16:31:43.256Z,21.49
2018-05-07T16:34:13.393Z,21.08
2018-05-07T16:36:41.657Z,21.00
2018-05-07T16:39:10.006Z,20.76
2018-05-07T16:41:38.726Z,20.55
2018-05-07T16:44:07.035Z,20.55
2018-05-07T16:46:35.525Z,20.24
2018-05-07T16:49:03.659Z,20.65
2018-05-07T16:51:31.948Z,20.35
2018-05-07T16:54:00.235Z,20.95
2018-05-07T16:56:28.515Z,21.36
2018-05-07T16:58:58.427Z,21.25
2018-05-07T17:01:26.864Z,21.75
2018-05-07T17:03:55.304Z,22.58
2018-05-07T17:06:23.565Z,23.18
2018-05-07T17:08:51.820Z,23.72
2018-05-07T17:11:20.129Z,23.94
2018-05-07T17:13:48.906Z,23.77
2018-05-07T17:16:21.789Z,24.04
2018-05-07T17:18:51.465Z,24.19
2018-05-07T17:21:19.839Z,24.16
2018-05-07T17:23:48.086Z,24.43
2018-05-07T17:26:16.852Z,24.75
2018-05-07T17:28:45.799Z,25.01
2018-05-07T17:31:14.278Z,25.05
2018-05-07T17:33:42.777Z,24.98
2018-05-07T17:36:11.158Z,24.85
2018-05-07T17:38:39.432Z,25.08
2018-05-07T17:41:07.681Z,25.31
2018-05-07T17:43:36.021Z,25.54
2018-05-07T17:46:16.182Z,25.83
2018-05-07T17:48:56.081Z,25.93
2018-05-07T17:51:24.532Z,26.34
2018-05-07T17:53:52.851Z,26.43
2018-05-07T17:56:21.265Z,27.00
2018-05-07T17:58:49.638Z,27.19
2018-05-07T18:01:17.911Z,27.41
2018-05-07T18:03:46.189Z,27.66
2018-05-07T18:06:14.578Z,27.65
2018-05-07T18:08:42.877Z,27.65
2018-05-07T18:11:11.184Z,27.58
2018-05-07T18:13:41.087Z,27.68
2018-05-07T18:16:09.247Z,27.94
2018-05-07T18:18:37.543Z,27.94
2018-05-07T18:21:05.822Z,27.98
2018-05-07T18:23:34.288Z,28.06
2018-05-07T18:26:02.590Z,28.17
2018-05-07T18:28:31.049Z,28.29
2018-05-07T18:30:59.216Z,28.54
2018-05-07T18:33:27.746Z,28.79
2018-05-07T18:35:56.019Z,28.98
2018-05-07T18:38:24.374Z,28.93
2018-05-07T18:40:52.659Z,29.09
2018-05-07T18:43:20.953Z,29.18
2018-05-07T18:45:49.365Z,29.44
2018-05-07T18:48:17.647Z,29.46
2018-05-07T18:50:45.964Z,29.79
2018-05-07T18:53:14.230Z,29.95
2018-05-07T18:55:42.512Z,30.03
2018-05-07T18:58:11.088Z,30.34
2018-05-07T19:00:39.382Z,30.50
2018-05-07T19:03:07.656Z,30.58
2018-05-07T19:05:36.006Z,30.88
2018-05-07T19:08:04.308Z,31.04
2018-05-07T19:10:32.618Z,31.36
2018-05-07T19:13:00.913Z,31.80
2018-05-07T19:15:29.226Z,31.96
2018-05-07T19:17:57.507Z,32.33
2018-05-07T19:20:26.153Z,32.52
2018-05-07T19:22:54.467Z,32.74
2018-05-07T19:25:22.764Z,32.97
2018-05-07T19:27:51.064Z,32.98
2018-05-07T19:30:19.383Z,33.18
2018-05-07T19:32:47.699Z,33.34
2018-05-07T19:35:16.005Z,33.44
2018-05-07T19:37:44.991Z,33.62
2018-05-07T19:40:13.497Z,33.71
2018-05-07T19:42:41.774Z,33.76
2018-05-07T19:45:10.463Z,34.48
2018-05-07T19:47:38.804Z,34.92
2018-05-07T19:50:07.103Z,35.31
2018-05-07T19:52:35.523Z,35.49
2018-05-07T19:55:03.862Z,35.53
2018-05-07T19:57:32.149Z,35.82
2018-05-07T20:00:01.106Z,36.07
2018-05-07T20:02:29.465Z,36.28
2018-05-07T20:04:57.798Z,36.75
2018-05-07T20:07:26.086Z,36.82
2018-05-07T20:09:54.393Z,37.12
2018-05-07T20:12:23.453Z,37.38
2018-05-07T20:14:53.161Z,37.59
2018-05-07T20:17:22.695Z,38.24
2018-05-07T20:19:55.924Z,38.44
2018-05-07T20:22:25.208Z,39.05
2018-05-07T20:24:53.493Z,39.43
2018-05-07T20:27:21.749Z,40.10
2018-05-07T20:29:50.057Z,40.51
2018-05-07T20:32:18.368Z,40.96
2018-05-07T20:34:46.658Z,41.42
2018-05-07T20:37:14.920Z,41.37
2018-05-07T20:39:43.252Z,41.65
2018-05-07T20:42:11.563Z,42.28
2018-05-07T20:44:39.868Z,42.20
2018-05-07T20:47:08.524Z,42.89
2018-05-07T20:49:37.112Z,43.85
2018-05-07T20:52:05.398Z,44.13
2018-05-07T20:54:34.291Z,44.61
2018-05-07T20:57:02.865Z,44.24
2018-05-07T20:59:32.403Z,44.35
2018-05-07T21:02:00.730Z,44.34
2018-05-07T21:04:29.229Z,44.50
2018-05-07T21:06:57.834Z,44.84
2018-05-07T21:09:27.257Z,45.28
2018-05-07T21:11:56.411Z,45.10
2018-05-07T21:14:24.781Z,45.58
2018-05-07T21:16:53.027Z,45.73
2018-05-07T21:19:22.885Z,46.41
2018-05-07T21:21:51.172Z,46.82
2018-05-07T21:24:19.442Z,46.78
2018-05-07T21:26:47.714Z,46.73
2018-05-07T21:29:18.186Z,47.02
2018-05-07T21:31:46.659Z,46.77
2018-05-07T21:34:15.372Z,46.49
2018-05-07T21:36:44.057Z,46.50
2018-05-07T21:39:12.541Z,47.31
2018-05-07T21:41:40.905Z,48.26
2018-05-07T21:44:09.962Z,48.49
2018-05-07T21:46:38.388Z,49.16
2018-05-07T21:49:06.800Z,49.54
2018-05-07T21:51:35.135Z,49.57
2018-05-07T21:54:03.441Z,50.06
2018-05-07T21:56:31.745Z,50.14
2018-05-07T21:59:00.028Z,49.98
2018-05-07T22:01:28.322Z,49.97
2018-05-07T22:03:57.165Z,49.90
2018-05-07T22:06:25.488Z,49.72
2018-05-07T22:08:53.908Z,49.53
2018-05-07T22:11:22.151Z,49.54
2018-05-07T22:13:51.218Z,50.21
2018-05-07T22:16:19.598Z,50.14
2018-05-07T22:18:47.860Z,50.44
2018-05-07T22:21:16.281Z,50.21
2018-05-07T22:23:44.596Z,50.21
2018-05-07T22:28:49.490Z,50.05
2018-05-07T22:31:17.794Z,50.45
2018-05-07T22:33:46.046Z,50.62
2018-05-07T22:36:14.359Z,51.08
2018-05-07T22:38:42.633Z,51.52
2018-05-07T22:41:11.022Z,51.46
2018-05-07T22:43:39.266Z,51.64
2018-05-07T22:46:07.543Z,51.61
2018-05-07T22:48:35.874Z,51.77
2018-05-07T22:51:04.149Z,51.83
2018-05-07T22:53:32.448Z,51.85
2018-05-07T22:56:00.753Z,52.23
2018-05-07T22:58:29.041Z,52.35
2018-05-07T23:00:57.366Z,52.60
2018-05-07T23:03:26.486Z,52.35
2018-05-07T23:05:54.769Z,52.62
2018-05-07T23:08:23.051Z,52.05
2018-05-07T23:10:51.328Z,52.00
2018-05-07T23:13:19.624Z,52.35
2018-05-07T23:15:47.997Z,53.34
2018-05-07T23:18:16.255Z,53.37
2018-05-07T23:20:44.542Z,53.20
2018-05-07T23:23:12.823Z,53.32
2018-05-07T23:25:41.132Z,53.53
2018-05-07T23:28:10.405Z,54.43
2018-05-07T23:30:38.739Z,54.29
2018-05-07T23:33:07.071Z,54.38
2018-05-07T23:35:35.366Z,54.44
2018-05-07T23:38:03.678Z,54.34
2018-05-07T23:40:32.007Z,53.86
2018-05-07T23:43:00.290Z,53.72
2018-05-07T23:45:28.583Z,54.23
2018-05-07T23:47:56.875Z,56.29
2018-05-07T23:50:25.120Z,57.42
2018-05-07T23:52:53.998Z,56.86
2018-05-07T23:55:22.275Z,55.75
2018-05-07T23:57:50.540Z,55.92
